createdAt,value
2019-05-09T00:03:10.609Z,10.7
2019-05-09T00:08:13.876Z,10.7
2019-05-09T00:13:14.711Z,10.7
2019-05-09T00:18:17.278Z,10.7
2019-05-09T00:23:19.562Z,10.7
2019-05-09T00:28:23.591Z,10.7
2019-05-09T00:33:24.466Z,10.7
2019-05-09T00:38:26.976Z,10.6
2019-05-09T00:43:29.357Z,10.6
2019-05-09T00:48:33.643Z,10.6
2019-05-09T00:53:34.258Z,10.6
2019-05-09T00:58:36.814Z,10.5
2019-05-09T01:03:39.142Z,10.6
2019-05-09T01:08:42.159Z,10.6
2019-05-09T01:13:44.309Z,10.5
2019-05-09T01:18:46.514Z,10.5
2019-05-09T01:23:48.912Z,10.5
2019-05-09T01:28:53.470Z,10.5
2019-05-09T01:33:53.761Z,10.5
2019-05-09T01:38:56.199Z,10.5
2019-05-09T01:43:58.709Z,10.4
2019-05-09T01:49:03.153Z,10.4
2019-05-09T01:54:03.808Z,10.3
2019-05-09T01:59:05.953Z,10.3
2019-05-09T02:04:08.419Z,10.3
2019-05-09T02:09:10.921Z,10.2
2019-05-09T02:14:13.585Z,10.2
2019-05-09T02:19:15.700Z,10.2
2019-05-09T02:24:18.183Z,10.2
2019-05-09T02:29:20.605Z,10.1
2019-05-09T02:34:24.793Z,10.1
2019-05-09T02:39:25.477Z,10.1
2019-05-09T02:44:28.863Z,10
2019-05-09T02:49:30.342Z,10
2019-05-09T02:54:32.810Z,10
2019-05-09T02:59:38.395Z,10
2019-05-09T03:04:39.049Z,10
2019-05-09T03:09:40.198Z,10
2019-05-09T03:14:42.532Z,9.9
2019-05-09T03:19:45.754Z,9.9
2019-05-09T03:24:48.531Z,9.9
2019-05-09T03:29:49.932Z,9.9
2019-05-09T03:34:52.296Z,9.9
2019-05-09T03:39:54.757Z,9.8
2019-05-09T03:44:58.033Z,9.8
2019-05-09T03:49:59.633Z,9.8
2019-05-09T03:55:02.149Z,9.8
2019-05-09T04:00:04.559Z,9.8
2019-05-09T04:05:08.084Z,9.8
2019-05-09T04:10:09.477Z,9.8
2019-05-09T04:15:12.011Z,9.8
2019-05-09T04:20:14.343Z,9.7
2019-05-09T04:25:18.056Z,9.7
2019-05-09T04:30:19.156Z,9.7
2019-05-09T04:35:21.761Z,9.7
2019-05-09T04:40:24.030Z,9.7
2019-05-09T04:45:28.275Z,9.7
2019-05-09T04:50:29.025Z,9.7
2019-05-09T04:55:31.444Z,9.7
2019-05-09T05:00:33.902Z,9.7
2019-05-09T05:05:37.106Z,9.7
2019-05-09T05:10:39.149Z,9.7
2019-05-09T05:15:41.149Z,9.7
2019-05-09T05:20:43.537Z,9.7
2019-05-09T05:25:47.525Z,9.8
2019-05-09T05:30:48.476Z,9.8
2019-05-09T05:35:50.861Z,9.8
2019-05-09T05:40:53.520Z,9.8
2019-05-09T05:45:55.761Z,9.8
2019-05-09T05:50:58.242Z,9.9
2019-05-09T05:56:00.853Z,9.9
2019-05-09T06:01:04.439Z,10
2019-05-09T06:06:05.496Z,10.1
2019-05-09T06:11:11.746Z,10.1
2019-05-09T06:16:10.382Z,10.2
2019-05-09T06:21:12.886Z,10.2
2019-05-09T06:26:18.800Z,10.3
2019-05-09T06:31:18.036Z,10.3
2019-05-09T06:36:20.138Z,10.4
2019-05-09T06:41:22.712Z,10.4
2019-05-09T06:46:27.449Z,10.5
2019-05-09T06:51:27.748Z,10.6
2019-05-09T06:56:30.307Z,10.8
2019-05-09T07:01:32.359Z,10.8
2019-05-09T07:06:34.840Z,10.9
2019-05-09T07:11:38.057Z,10.9
2019-05-09T07:16:39.655Z,11
2019-05-09T07:21:42.351Z,11
2019-05-09T07:26:44.568Z,11
2019-05-09T07:31:47.986Z,10.9
2019-05-09T07:36:49.555Z,10.9
2019-05-09T07:41:52.099Z,10.9
2019-05-09T07:46:54.315Z,10.9
2019-05-09T07:51:58.429Z,11.1
2019-05-09T07:56:59.343Z,11.2
2019-05-09T08:02:14.479Z,11.3
2019-05-09T08:07:04.160Z,11.6
2019-05-09T08:12:07.462Z,11.8
2019-05-09T08:17:08.952Z,11.9
2019-05-09T08:22:11.436Z,12
2019-05-09T08:27:13.898Z,12
2019-05-09T08:32:18.059Z,11.9
2019-05-09T08:37:18.870Z,12
2019-05-09T08:42:21.178Z,12.1
2019-05-09T08:47:23.586Z,12.1
2019-05-09T08:52:28.498Z,12
2019-05-09T08:57:28.901Z,12.1
2019-05-09T09:02:30.900Z,12.1
2019-05-09T09:07:33.409Z,12.1
2019-05-09T09:12:38.072Z,12.2
2019-05-09T09:17:38.701Z,12.5
2019-05-09T09:22:40.672Z,12.7
2019-05-09T09:27:43.232Z,12.8
2019-05-09T09:32:47.848Z,13.1
2019-05-09T09:37:51.289Z,13.3
2019-05-09T09:42:50.506Z,13.5
2019-05-09T09:47:53.035Z,13.6
2019-05-09T09:52:55.312Z,13.5
2019-05-09T09:57:58.117Z,13.7
2019-05-09T10:03:00.199Z,14.1
2019-05-09T10:08:02.629Z,14.2
2019-05-09T10:13:05.108Z,13.9
2019-05-09T10:18:07.648Z,13.9
2019-05-09T10:23:17.812Z,13.8
2019-05-09T10:28:12.471Z,13.9
2019-05-09T10:33:14.862Z,13.7
2019-05-09T10:38:18.337Z,13.6
2019-05-09T10:43:34.314Z,14
2019-05-09T10:48:23.996Z,15
2019-05-09T10:53:24.953Z,15
2019-05-09T10:58:28.105Z,15.1
2019-05-09T11:03:29.486Z,14.6
2019-05-09T11:08:32.375Z,14.2
2019-05-09T11:13:34.374Z,14
2019-05-09T11:18:36.787Z,14
2019-05-09T11:23:39.426Z,14
2019-05-09T11:28:41.725Z,14.3
2019-05-09T11:33:44.129Z,14.6
2019-05-09T11:38:49.352Z,15.3
2019-05-09T11:43:49.057Z,15.3
2019-05-09T11:48:51.508Z,15
2019-05-09T11:53:53.894Z,14.7
2019-05-09T11:58:57.854Z,14.7
2019-05-09T12:03:58.760Z,14.7
2019-05-09T12:09:01.243Z,14.8
2019-05-09T12:14:03.654Z,14.9
2019-05-09T12:19:06.077Z,14.8
2019-05-09T12:24:09.020Z,14.7
2019-05-09T12:29:11.164Z,14.7
2019-05-09T12:34:13.427Z,14.7
2019-05-09T12:39:18.724Z,14.9
2019-05-09T12:44:18.615Z,15.3
2019-05-09T12:49:20.719Z,16
2019-05-09T12:54:23.191Z,17.1
2019-05-09T12:59:25.741Z,17.2
2019-05-09T13:04:28.346Z,17.1
2019-05-09T13:09:30.517Z,16.6
2019-05-09T13:14:32.942Z,16.6
2019-05-09T13:19:37.954Z,17.3
2019-05-09T13:24:38.020Z,17
2019-05-09T13:29:40.343Z,16.6
2019-05-09T13:34:42.785Z,17.1
2019-05-09T13:39:47.547Z,17.4
2019-05-09T13:44:47.658Z,17.7
2019-05-09T13:49:50.067Z,17.5
2019-05-09T13:54:52.610Z,17
2019-05-09T13:59:54.896Z,16.5
2019-05-09T14:04:58.227Z,16.4
2019-05-09T14:10:00.087Z,18.7
2019-05-09T14:15:02.470Z,20.2
2019-05-09T14:20:04.720Z,22
2019-05-09T14:25:10.761Z,22.6
2019-05-09T14:30:09.788Z,22.3
2019-05-09T14:35:11.997Z,20.7
2019-05-09T14:40:17.345Z,19.3
2019-05-09T14:45:18.058Z,18.3
2019-05-09T14:50:19.305Z,19.9
2019-05-09T14:55:21.812Z,23.3
2019-05-09T15:00:24.187Z,25.7
2019-05-09T15:05:27.846Z,23.9
2019-05-09T15:10:29.270Z,22.9
2019-05-09T15:15:32.675Z,24.1
2019-05-09T15:20:33.999Z,24.1
2019-05-09T15:25:36.444Z,21.9
2019-05-09T15:30:38.844Z,20.5
2019-05-09T15:35:41.302Z,21.4
2019-05-09T15:40:43.774Z,20.8
2019-05-09T15:45:46.174Z,19.5
2019-05-09T15:50:48.619Z,18.5
2019-05-09T15:55:51.064Z,17.6
2019-05-09T16:00:53.531Z,17.1
2019-05-09T16:05:58.159Z,16.8
2019-05-09T16:10:58.670Z,16.7
2019-05-09T16:16:00.858Z,17.1
2019-05-09T16:21:03.580Z,16.9
2019-05-09T16:26:07.739Z,17.4
2019-05-09T16:31:08.263Z,17.8
2019-05-09T16:36:10.783Z,18
2019-05-09T16:41:13.001Z,17.7
2019-05-09T16:46:17.851Z,17.3
2019-05-09T16:51:18.294Z,16.8
2019-05-09T16:56:20.362Z,16.3
2019-05-09T17:01:22.943Z,15.8
2019-05-09T17:06:27.242Z,15.5
2019-05-09T17:11:27.923Z,15.2
2019-05-09T17:16:30.124Z,15
2019-05-09T17:21:32.624Z,14.8
2019-05-09T17:26:35.010Z,14.7
2019-05-09T17:31:38.282Z,14.6
2019-05-09T17:36:39.872Z,14.5
2019-05-09T17:41:42.273Z,14.3
2019-05-09T17:46:44.746Z,14.2
2019-05-09T17:51:48.185Z,14.1
2019-05-09T17:56:49.598Z,14
2019-05-09T18:01:52.035Z,13.9
2019-05-09T18:06:54.598Z,13.8
2019-05-09T18:11:57.791Z,13.7
2019-05-09T18:16:59.419Z,13.6
2019-05-09T18:22:01.866Z,13.6
2019-05-09T18:27:04.249Z,13.5
2019-05-09T18:32:07.670Z,13.4
2019-05-09T18:37:09.149Z,13.4
2019-05-09T18:42:11.563Z,13.2
2019-05-09T18:47:13.999Z,13.2
2019-05-09T18:57:18.889Z,13.1
2019-05-09T19:02:21.355Z,13
2019-05-09T19:07:23.758Z,13
2019-05-09T19:12:26.247Z,13
2019-05-09T19:17:28.644Z,12.9
2019-05-09T19:22:31.065Z,12.8
2019-05-09T19:27:33.577Z,12.7
2019-05-09T19:32:35.989Z,12.6
2019-05-09T19:37:38.476Z,12.4
2019-05-09T19:42:40.954Z,12.4
2019-05-09T19:47:43.341Z,12.2
2019-05-09T19:52:45.770Z,12.2
2019-05-09T19:57:48.167Z,12.1
2019-05-09T20:02:50.625Z,12
2019-05-09T20:07:53.079Z,11.9
2019-05-09T20:12:55.486Z,11.9
2019-05-09T20:17:57.958Z,11.8
2019-05-09T20:23:00.411Z,11.8
2019-05-09T20:28:02.795Z,11.8
2019-05-09T20:33:05.287Z,11.7
2019-05-09T20:38:07.732Z,11.6
2019-05-09T20:43:10.125Z,11.6
2019-05-09T20:48:12.621Z,11.6
2019-05-09T20:53:15.009Z,11.6
2019-05-09T20:58:17.496Z,11.5
2019-05-09T21:03:19.997Z,11.5
2019-05-09T21:08:22.345Z,11.5
2019-05-09T21:13:24.782Z,11.4
2019-05-09T21:18:27.278Z,11.4
2019-05-09T21:23:29.765Z,11.4
2019-05-09T21:28:32.527Z,11.4
2019-05-09T21:33:34.576Z,11.4
2019-05-09T21:38:37.266Z,11.3
2019-05-09T21:43:39.658Z,11.3
2019-05-09T21:48:41.862Z,11.3
2019-05-09T21:53:44.324Z,11.2
2019-05-09T21:58:46.730Z,11.1
2019-05-09T22:03:49.187Z,11.1
2019-05-09T22:08:51.721Z,11.1
2019-05-09T22:13:54.074Z,11.1
2019-05-09T22:18:56.537Z,11
2019-05-09T22:23:58.904Z,11
2019-05-09T22:29:01.372Z,11
2019-05-09T22:34:03.914Z,11
2019-05-09T22:39:06.246Z,11
2019-05-09T22:44:08.709Z,11
2019-05-09T22:49:11.141Z,11
2019-05-09T22:54:13.583Z,11
2019-05-09T22:59:16.060Z,10.9
2019-05-09T23:04:18.498Z,10.9
2019-05-09T23:09:20.950Z,10.9
2019-05-09T23:14:23.359Z,11
2019-05-09T23:19:25.780Z,10.9
2019-05-09T23:24:28.953Z,11
2019-05-09T23:29:30.641Z,10.9
2019-05-09T23:34:33.285Z,10.9
2019-05-09T23:39:35.529Z,10.9
2019-05-09T23:44:38.159Z,10.9
2019-05-09T23:49:40.458Z,10.8
2019-05-09T23:54:46.220Z,10.8
2019-05-09T23:59:45.302Z,10.7
